Glendale Springs, North Carolina
Current Conditions -  °F | °C
As of 6:15 PM on Saturday 25 Oct 2014 (Local Time) from KGEV Reporting Station
Scattered Clouds Scattered Clouds  
Wind Chill: 61°   Ceiling: Unl
Heat Index: 61°   Visibility: 10mi
Dew Point: 40°   Wind: 12mph
Humidity: 47%   Direction: 280°W
Pressure: 30.01"   Gusts: NA
Location:  36.35°N, 81.38°W
Report Text: KGEV 252215Z AUTO 28010KT 10SM SCT034 16/05 A3001 RMK AO2 T01590046
Loading
Personal Weather Stations






























Interactive Weather Map
Tropical Storm Tracking
New forecast layout! Learn more

10-Day Weather Forecast

Advertisements
Track Severe Weather on mobile